Time;durP1;ratioP1;P1;durP2;ratioP2;P2;SDS_P1;SDS_P2;PMS_P1;PMS_P2;Temp;Humidity;BMP_temperature;BMP_pressure;BME280_temperature;BME280_humidity;BME280_pressure;Samples;Min_cycle;Max_cycle;Signal;HPM_P1;HPM_P2
2022/06/04 00:00:42;;;;;;;;;;;16.90;65.80;;;;;;5046858;28;20355;-86
2022/06/04 00:03:08;;;;;;;;;;;16.80;66.60;;;;;;5048477;28;19912;-85
2022/06/04 00:05:45;;;;;;;;;;;16.80;66.10;;;;;;5049723;28;19913;-86
2022/06/04 00:08:13;;;;;;;;;;;16.80;66.30;;;;;;5047790;28;20375;-85
2022/06/04 00:16:10;;;;;;;;;;;17.00;65.00;;;;;;5030215;28;19967;-86
2022/06/04 00:18:36;;;;;;;;;;;16.80;65.90;;;;;;5027790;28;19972;-85
2022/06/04 00:21:04;;;;;;;;;;;16.70;66.20;;;;;;5039618;28;19912;-86
2022/06/04 00:23:30;;;;;;;;;;;16.80;65.60;;;;;;5048329;28;19917;-86
2022/06/04 00:25:59;;;;;;;;;;;16.80;65.50;;;;;;5048605;28;20345;-86
2022/06/04 00:28:25;;;;;;;;;;;16.80;65.60;;;;;;5048803;28;19924;-85
2022/06/04 00:30:52;;;;;;;;;;;16.80;65.00;;;;;;5046785;28;19924;-85
2022/06/04 00:33:18;;;;;;;;;;;16.70;66.10;;;;;;5049421;28;20291;-84
2022/06/04 00:35:52;;;;;;;;;;;16.70;65.60;;;;;;5048046;28;19916;-85
2022/06/04 00:38:26;;;;;;;;;;;16.50;66.60;;;;;;5049319;28;19909;-87
2022/06/04 00:41:16;;;;;;;;;;;16.50;66.70;;;;;;5050319;28;19909;-85
2022/06/04 00:44:01;;;;;;;;;;;16.40;67.60;;;;;;5051344;28;19917;-85
2022/06/04 00:46:39;;;;;;;;;;;16.20;68.30;;;;;;5051953;28;19920;-85
2022/06/04 00:49:04;;;;;;;;;;;16.30;67.60;;;;;;5050856;28;19917;-85
2022/06/04 00:51:30;;;;;;;;;;;16.30;67.90;;;;;;5051838;28;20393;-85
2022/06/04 00:54:02;;;;;;;;;;;16.30;67.70;;;;;;5051589;28;19909;-86
2022/06/04 00:56:36;;;;;;;;;;;16.10;68.40;;;;;;5052550;28;20053;-85
2022/06/04 00:59:08;;;;;;;;;;;16.10;68.60;;;;;;5051209;28;19913;-85
2022/06/04 01:01:46;;;;;;;;;;;16.00;69.00;;;;;;5051244;28;19999;-86
2022/06/04 01:04:48;;;;;;;;;;;16.00;69.50;;;;;;5051089;28;19912;-85
2022/06/04 01:07:25;;;;;;;;;;;16.10;68.40;;;;;;5032898;28;19920;-85
2022/06/04 01:10:07;;;;;;;;;;;16.10;68.80;;;;;;5041609;28;19913;-85
2022/06/04 01:12:38;;;;;;;;;;;16.10;68.90;;;;;;5041575;28;20003;-85
2022/06/04 01:15:42;;;;;;;;;;;16.10;69.10;;;;;;5047157;28;19960;-86
2022/06/04 01:18:11;;;;;;;;;;;16.10;69.00;;;;;;4991517;28;19910;-85
2022/06/04 01:20:54;;;;;;;;;;;16.00;69.40;;;;;;4974355;28;19918;-86
2022/06/04 01:23:23;;;;;;;;;;;16.10;69.00;;;;;;5020267;28;19944;-85
2022/06/04 01:26:00;;;;;;;;;;;16.20;68.50;;;;;;5041603;28;19910;-85
2022/06/04 01:28:27;;;;;;;;;;;16.00;68.90;;;;;;5046098;28;19951;-85
2022/06/04 01:30:58;;;;;;;;;;;16.00;69.10;;;;;;5049205;28;20363;-84
2022/06/04 01:33:31;;;;;;;;;;;16.10;69.30;;;;;;5050940;28;20287;-85
2022/06/04 01:36:03;;;;;;;;;;;16.10;69.10;;;;;;5050729;28;19959;-85
2022/06/04 01:38:31;;;;;;;;;;;16.00;69.20;;;;;;5052041;28;19909;-85
2022/06/04 01:41:06;;;;;;;;;;;16.00;69.50;;;;;;5049291;28;19909;-84
2022/06/04 01:43:45;;;;;;;;;;;15.90;69.70;;;;;;5051599;28;20011;-85
2022/06/04 01:46:20;;;;;;;;;;;15.90;69.80;;;;;;5049829;28;20008;-85
2022/06/04 01:48:47;;;;;;;;;;;15.80;70.30;;;;;;5050786;28;19952;-86
2022/06/04 01:51:16;;;;;;;;;;;15.70;71.30;;;;;;5050157;28;20007;-86
2022/06/04 01:53:43;;;;;;;;;;;15.60;71.60;;;;;;5050272;28;19913;-86
2022/06/04 01:56:19;;;;;;;;;;;15.60;71.40;;;;;;5049303;28;19909;-85
2022/06/04 01:58:51;;;;;;;;;;;15.60;71.50;;;;;;5048177;28;20363;-86
2022/06/04 02:01:27;;;;;;;;;;;15.70;71.00;;;;;;5049249;28;19959;-85
2022/06/04 02:04:02;;;;;;;;;;;15.60;71.60;;;;;;5049833;28;20031;-86
2022/06/04 02:06:30;;;;;;;;;;;15.50;72.10;;;;;;5049843;28;20106;-85
2022/06/04 02:09:01;;;;;;;;;;;15.50;72.00;;;;;;5047589;28;19915;-85
2022/06/04 02:11:29;;;;;;;;;;;15.50;71.80;;;;;;5048274;28;20016;-85
2022/06/04 02:13:57;;;;;;;;;;;15.50;72.20;;;;;;5049759;28;20147;-86
2022/06/04 02:16:27;;;;;;;;;;;15.60;71.60;;;;;;5035832;28;19960;-85
2022/06/04 02:18:54;;;;;;;;;;;15.60;71.10;;;;;;5035883;28;19954;-85
2022/06/04 02:21:19;;;;;;;;;;;15.50;71.50;;;;;;5058797;28;19913;-85
2022/06/04 02:23:47;;;;;;;;;;;15.60;71.00;;;;;;5051684;28;19943;-84
2022/06/04 02:26:13;;;;;;;;;;;15.40;71.70;;;;;;5051943;28;19913;-85
2022/06/04 02:28:38;;;;;;;;;;;15.30;71.90;;;;;;5049472;28;19917;-85
2022/06/04 02:31:09;;;;;;;;;;;15.40;72.30;;;;;;5051032;28;20003;-85
2022/06/04 02:33:43;;;;;;;;;;;15.30;72.10;;;;;;5038386;28;20033;-85
2022/06/04 02:36:35;;;;;;;;;;;15.30;72.30;;;;;;5030619;28;20356;-85
2022/06/04 02:39:12;;;;;;;;;;;15.20;72.80;;;;;;5030534;28;19913;-85
2022/06/04 02:41:49;;;;;;;;;;;15.40;71.90;;;;;;5040543;28;19913;-84
2022/06/04 02:44:20;;;;;;;;;;;15.30;72.00;;;;;;5029288;28;20402;-85
2022/06/04 02:46:57;;;;;;;;;;;15.20;72.40;;;;;;5028949;28;20007;-85
2022/06/04 02:49:25;;;;;;;;;;;15.00;73.20;;;;;;5041118;28;20003;-86
2022/06/04 02:51:55;;;;;;;;;;;15.10;73.30;;;;;;5042731;28;19963;-85
2022/06/04 02:54:26;;;;;;;;;;;15.10;72.60;;;;;;5049519;28;19913;-85
2022/06/04 02:56:55;;;;;;;;;;;15.10;72.70;;;;;;5030782;28;19913;-85
2022/06/04 02:59:25;;;;;;;;;;;15.10;73.10;;;;;;5029939;28;19913;-85
2022/06/04 03:02:01;;;;;;;;;;;15.20;72.70;;;;;;5043029;28;19913;-85
2022/06/04 03:04:38;;;;;;;;;;;15.10;73.00;;;;;;5048835;28;20399;-85
2022/06/04 03:10:01;;;;;;;;;;;15.00;73.00;;;;;;5039113;28;19913;-85
2022/06/04 03:12:27;;;;;;;;;;;15.00;73.40;;;;;;5050300;28;19909;-85
2022/06/04 03:14:53;;;;;;;;;;;15.10;73.00;;;;;;5049001;28;20275;-85
2022/06/04 03:17:30;;;;;;;;;;;14.90;73.50;;;;;;5049980;28;19909;-86
2022/06/04 03:19:56;;;;;;;;;;;15.10;72.70;;;;;;5049665;28;19917;-85
2022/06/04 03:22:24;;;;;;;;;;;15.30;71.80;;;;;;5048555;28;19909;-85
2022/06/04 03:24:52;;;;;;;;;;;15.10;72.50;;;;;;5045573;28;20043;-86
2022/06/04 03:27:25;;;;;;;;;;;15.00;72.90;;;;;;5061563;28;19908;-85
2022/06/04 03:29:53;;;;;;;;;;;15.00;72.60;;;;;;5068255;28;19913;-85
2022/06/04 03:32:33;;;;;;;;;;;15.00;73.00;;;;;;5061414;28;19909;-86
2022/06/04 03:34:58;;;;;;;;;;;15.10;72.90;;;;;;5048629;28;19955;-85
2022/06/04 03:37:24;;;;;;;;;;;15.10;72.70;;;;;;5048304;28;19924;-85
2022/06/04 03:39:53;;;;;;;;;;;15.20;72.20;;;;;;5048652;28;19908;-85
2022/06/04 03:42:18;;;;;;;;;;;15.00;73.00;;;;;;5048207;28;20302;-85
2022/06/04 03:44:51;;;;;;;;;;;14.90;73.40;;;;;;5050094;28;19917;-85
2022/06/04 03:47:17;;;;;;;;;;;15.00;73.10;;;;;;5047208;28;19956;-85
2022/06/04 03:49:46;;;;;;;;;;;15.00;73.20;;;;;;5048137;28;19986;-85
2022/06/04 03:52:12;;;;;;;;;;;14.90;73.60;;;;;;5049602;28;19923;-85
2022/06/04 03:54:52;;;;;;;;;;;15.00;73.20;;;;;;5048269;28;19913;-85
2022/06/04 04:00:06;;;;;;;;;;;14.90;73.40;;;;;;5047914;28;19927;-85
2022/06/04 04:02:36;;;;;;;;;;;14.80;74.10;;;;;;5069776;28;19928;-85
2022/06/04 04:05:02;;;;;;;;;;;14.90;74.00;;;;;;5069855;28;19997;-85
2022/06/04 04:07:33;;;;;;;;;;;15.00;72.90;;;;;;5051892;28;19913;-85
2022/06/04 04:10:01;;;;;;;;;;;15.00;72.90;;;;;;5043824;28;20043;-85
2022/06/04 04:12:27;;;;;;;;;;;14.90;73.70;;;;;;5048673;28;19920;-85
2022/06/04 04:14:56;;;;;;;;;;;14.80;74.30;;;;;;5053310;28;19909;-85
2022/06/04 04:17:27;;;;;;;;;;;14.90;73.30;;;;;;5051339;28;19913;-86
2022/06/04 04:19:52;;;;;;;;;;;14.70;74.00;;;;;;5051577;28;19909;-85
2022/06/04 04:22:19;;;;;;;;;;;14.60;74.30;;;;;;5052140;28;20360;-85
2022/06/04 04:24:45;;;;;;;;;;;14.70;74.40;;;;;;5039063;28;19917;-84
2022/06/04 04:27:11;;;;;;;;;;;14.80;73.80;;;;;;5053744;28;20015;-85
2022/06/04 04:29:39;;;;;;;;;;;15.00;72.70;;;;;;5051390;28;19920;-85
2022/06/04 04:32:05;;;;;;;;;;;14.90;73.80;;;;;;5074666;28;19912;-85
2022/06/04 04:34:30;;;;;;;;;;;14.90;73.60;;;;;;5070721;28;19984;-85
2022/06/04 04:37:05;;;;;;;;;;;14.90;73.40;;;;;;5035215;28;19925;-85
2022/06/04 04:39:33;;;;;;;;;;;14.80;73.90;;;;;;5048520;28;19916;-84
2022/06/04 04:41:58;;;;;;;;;;;14.70;73.80;;;;;;5052436;28;19989;-85
2022/06/04 04:44:24;;;;;;;;;;;14.80;73.80;;;;;;5054953;28;20508;-85
2022/06/04 04:46:50;;;;;;;;;;;14.80;73.40;;;;;;5040221;28;20013;-85
2022/06/04 04:49:16;;;;;;;;;;;14.70;74.10;;;;;;5047503;28;19909;-85
2022/06/04 04:51:41;;;;;;;;;;;14.90;73.00;;;;;;5054067;28;19916;-85
2022/06/04 04:54:07;;;;;;;;;;;14.80;73.30;;;;;;5050197;28;19944;-85
2022/06/04 04:56:32;;;;;;;;;;;14.70;73.70;;;;;;5051770;28;19964;-85
2022/06/04 04:58:58;;;;;;;;;;;14.60;74.00;;;;;;5052550;28;20303;-85
2022/06/04 05:01:25;;;;;;;;;;;14.70;73.80;;;;;;5051558;28;20008;-85
2022/06/04 05:03:51;;;;;;;;;;;14.70;74.10;;;;;;5051385;28;20444;-85
2022/06/04 05:06:17;;;;;;;;;;;14.90;73.50;;;;;;5051084;28;19927;-84
2022/06/04 05:08:43;;;;;;;;;;;15.00;73.10;;;;;;5050870;28;19919;-85
2022/06/04 05:11:09;;;;;;;;;;;15.10;73.10;;;;;;5050563;28;20008;-85
2022/06/04 05:13:35;;;;;;;;;;;15.10;72.80;;;;;;5052640;28;20014;-85
2022/06/04 05:16:00;;;;;;;;;;;15.30;71.90;;;;;;5051814;28;19989;-85
2022/06/04 05:18:26;;;;;;;;;;;15.30;72.70;;;;;;5051736;28;19996;-85
2022/06/04 05:20:51;;;;;;;;;;;15.30;72.90;;;;;;5052050;28;20047;-84
2022/06/04 05:23:19;;;;;;;;;;;15.30;72.70;;;;;;5050323;28;19913;-85
2022/06/04 05:25:45;;;;;;;;;;;15.30;72.40;;;;;;5050938;28;19985;-85
2022/06/04 05:28:10;;;;;;;;;;;15.30;72.70;;;;;;5063150;28;19916;-85
2022/06/04 05:30:36;;;;;;;;;;;15.40;72.00;;;;;;5073300;28;20009;-85
2022/06/04 05:33:02;;;;;;;;;;;15.60;71.50;;;;;;5055511;28;19915;-85
2022/06/04 05:35:27;;;;;;;;;;;15.60;71.50;;;;;;5055913;28;19999;-85
2022/06/04 05:37:53;;;;;;;;;;;15.80;70.50;;;;;;5053064;28;19947;-85
2022/06/04 05:40:18;;;;;;;;;;;15.80;70.40;;;;;;5050969;28;19909;-85
2022/06/04 05:42:46;;;;;;;;;;;15.60;71.20;;;;;;5051046;28;19927;-86
2022/06/04 05:45:12;;;;;;;;;;;15.50;71.80;;;;;;5039932;28;19924;-86
2022/06/04 05:47:46;;;;;;;;;;;15.50;72.00;;;;;;5034642;28;19912;-86
2022/06/04 05:50:12;;;;;;;;;;;15.60;71.70;;;;;;5051458;28;19924;-85
2022/06/04 05:52:38;;;;;;;;;;;15.80;70.60;;;;;;5051851;28;20296;-87
2022/06/04 05:55:03;;;;;;;;;;;15.70;70.90;;;;;;5067613;28;19921;-85
2022/06/04 05:57:30;;;;;;;;;;;15.60;71.90;;;;;;5050113;28;19908;-85
2022/06/04 05:59:55;;;;;;;;;;;15.60;72.40;;;;;;5046085;28;20046;-86
2022/06/04 06:02:20;;;;;;;;;;;15.70;72.50;;;;;;5047527;28;19999;-85
2022/06/04 06:04:46;;;;;;;;;;;15.80;70.90;;;;;;5047964;28;19917;-86
2022/06/04 06:07:11;;;;;;;;;;;15.80;71.20;;;;;;5048382;28;20677;-85
2022/06/04 06:09:37;;;;;;;;;;;15.70;72.10;;;;;;5048540;28;19999;-85
2022/06/04 06:12:03;;;;;;;;;;;15.90;71.60;;;;;;5050958;28;20408;-85
2022/06/04 06:14:29;;;;;;;;;;;15.70;71.10;;;;;;5049797;28;19916;-85
2022/06/04 06:16:54;;;;;;;;;;;15.60;71.90;;;;;;5052668;28;19917;-85
2022/06/04 06:19:20;;;;;;;;;;;15.60;72.60;;;;;;5056836;28;19947;-86
2022/06/04 06:21:46;;;;;;;;;;;15.90;71.80;;;;;;5052159;28;20371;-85
2022/06/04 06:24:16;;;;;;;;;;;15.80;72.10;;;;;;5068901;28;19913;-86
2022/06/04 06:26:43;;;;;;;;;;;15.90;71.30;;;;;;5046957;28;19917;-85
2022/06/04 06:29:09;;;;;;;;;;;15.90;71.10;;;;;;5039092;28;19915;-85
2022/06/04 06:31:35;;;;;;;;;;;16.20;70.00;;;;;;5049599;28;19917;-85
2022/06/04 06:34:00;;;;;;;;;;;16.30;69.80;;;;;;5048543;28;20383;-85
2022/06/04 06:36:26;;;;;;;;;;;16.30;70.10;;;;;;5048985;28;20283;-85
2022/06/04 06:38:52;;;;;;;;;;;16.20;70.00;;;;;;5049198;28;20385;-86
2022/06/04 06:41:25;;;;;;;;;;;16.30;69.80;;;;;;5048618;28;19988;-86
2022/06/04 06:43:50;;;;;;;;;;;16.20;70.10;;;;;;5048227;28;20034;-85
2022/06/04 06:46:18;;;;;;;;;;;16.00;70.90;;;;;;5048645;28;19924;-87
2022/06/04 06:48:47;;;;;;;;;;;16.30;69.80;;;;;;5049029;28;20012;-86
2022/06/04 06:51:27;;;;;;;;;;;16.30;70.20;;;;;;5047171;28;19913;-85
2022/06/04 06:53:55;;;;;;;;;;;16.30;70.80;;;;;;5050353;28;19908;-85
2022/06/04 06:56:25;;;;;;;;;;;16.50;70.40;;;;;;5047956;28;19909;-87
2022/06/04 06:58:51;;;;;;;;;;;16.60;69.10;;;;;;5047491;28;19939;-85
2022/06/04 07:01:17;;;;;;;;;;;16.50;69.80;;;;;;5048886;28;19909;-85
2022/06/04 07:03:43;;;;;;;;;;;16.60;70.50;;;;;;5050342;28;19919;-86
2022/06/04 07:06:27;;;;;;;;;;;16.80;70.00;;;;;;5058506;28;22077;-86
2022/06/04 07:08:58;;;;;;;;;;;17.10;68.90;;;;;;5033073;28;19924;-85
2022/06/04 07:11:26;;;;;;;;;;;17.30;68.50;;;;;;5028675;28;19909;-85
2022/06/04 07:13:52;;;;;;;;;;;17.50;67.10;;;;;;5037812;28;19924;-85
2022/06/04 07:16:18;;;;;;;;;;;17.50;67.90;;;;;;5048568;28;19919;-85
2022/06/04 07:18:44;;;;;;;;;;;17.50;68.00;;;;;;5049737;28;20003;-86
2022/06/04 07:21:14;;;;;;;;;;;17.50;66.90;;;;;;5050134;28;19909;-86
2022/06/04 07:23:40;;;;;;;;;;;17.20;67.60;;;;;;5048667;28;20375;-85
2022/06/04 07:26:16;;;;;;;;;;;17.30;68.50;;;;;;5048695;28;19913;-87
2022/06/04 07:28:42;;;;;;;;;;;17.40;68.70;;;;;;5050230;28;19955;-85
2022/06/04 07:31:08;;;;;;;;;;;17.60;68.50;;;;;;5047471;28;19952;-85
2022/06/04 07:33:42;;;;;;;;;;;17.70;68.40;;;;;;5047610;28;19913;-85
2022/06/04 07:36:08;;;;;;;;;;;18.10;66.00;;;;;;5039919;28;19947;-85
2022/06/04 07:38:40;;;;;;;;;;;18.20;66.80;;;;;;5040463;28;20023;-84
2022/06/04 07:41:05;;;;;;;;;;;18.10;66.50;;;;;;5048883;28;19916;-85
2022/06/04 07:43:34;;;;;;;;;;;18.30;64.90;;;;;;5048423;28;20394;-85
2022/06/04 07:46:01;;;;;;;;;;;18.20;65.60;;;;;;5047598;28;20007;-85
2022/06/04 07:48:27;;;;;;;;;;;18.20;66.10;;;;;;5050917;28;20008;-85
2022/06/04 07:50:52;;;;;;;;;;;18.40;64.80;;;;;;5049883;28;20000;-86
2022/06/04 07:53:18;;;;;;;;;;;18.70;63.90;;;;;;5051914;28;20003;-86
2022/06/04 07:55:46;;;;;;;;;;;18.50;63.80;;;;;;5052977;28;19919;-85
2022/06/04 07:58:14;;;;;;;;;;;18.50;63.60;;;;;;5055922;28;19909;-86
2022/06/04 08:00:40;;;;;;;;;;;18.70;63.60;;;;;;5052396;28;20344;-86
2022/06/04 08:03:07;;;;;;;;;;;18.50;64.30;;;;;;5055470;28;19920;-86
2022/06/04 08:05:33;;;;;;;;;;;18.30;63.40;;;;;;5053150;28;19913;-85
2022/06/04 08:07:58;;;;;;;;;;;18.30;64.40;;;;;;5073970;28;19912;-86
2022/06/04 08:10:24;;;;;;;;;;;18.40;65.10;;;;;;5064215;28;20290;-84
2022/06/04 08:12:51;;;;;;;;;;;18.50;65.60;;;;;;5051638;28;19913;-85
2022/06/04 08:15:16;;;;;;;;;;;18.50;64.10;;;;;;5053166;28;19983;-85
2022/06/04 08:17:42;;;;;;;;;;;18.50;64.40;;;;;;5052102;28;19917;-85
2022/06/04 08:20:08;;;;;;;;;;;18.50;64.90;;;;;;5053511;28;19909;-85
2022/06/04 08:22:33;;;;;;;;;;;18.60;64.00;;;;;;5053270;28;19936;-86
2022/06/04 08:24:59;;;;;;;;;;;18.80;62.90;;;;;;5059452;28;19917;-86
2022/06/04 08:27:24;;;;;;;;;;;18.70;62.80;;;;;;5068342;28;19952;-86
2022/06/04 08:29:50;;;;;;;;;;;18.80;63.90;;;;;;5054134;28;19995;-85
2022/06/04 08:32:16;;;;;;;;;;;18.70;62.60;;;;;;5053965;28;20363;-85
2022/06/04 08:34:41;;;;;;;;;;;18.80;63.00;;;;;;5073393;28;19913;-85
2022/06/04 08:37:10;;;;;;;;;;;18.90;64.40;;;;;;5063902;28;19977;-85
2022/06/04 08:39:36;;;;;;;;;;;19.00;63.90;;;;;;5054604;28;19917;-85
2022/06/04 08:42:06;;;;;;;;;;;19.10;65.10;;;;;;5060015;28;20019;-86
2022/06/04 08:44:36;;;;;;;;;;;18.90;64.10;;;;;;5056650;28;20307;-86
2022/06/04 08:47:02;;;;;;;;;;;18.90;64.10;;;;;;5054030;28;20342;-87
2022/06/04 08:49:30;;;;;;;;;;;18.80;63.70;;;;;;5054693;28;19992;-86
2022/06/04 08:51:56;;;;;;;;;;;18.90;65.10;;;;;;5047118;28;19917;-86
2022/06/04 09:00:01;;;;;;;;;;;19.40;63.90;;;;;;5050032;28;19923;-85
2022/06/04 09:02:57;;;;;;;;;;;19.50;61.70;;;;;;5054343;28;19909;-85
2022/06/04 09:05:22;;;;;;;;;;;19.50;62.40;;;;;;5045803;28;19912;-85
2022/06/04 09:07:50;;;;;;;;;;;19.60;61.90;;;;;;5044775;28;19913;-85
2022/06/04 09:10:48;;;;;;;;;;;19.60;60.90;;;;;;5034706;28;19913;-85
2022/06/04 09:13:34;;;;;;;;;;;19.50;61.90;;;;;;5002945;28;19935;-86
2022/06/04 09:16:04;;;;;;;;;;;19.60;62.30;;;;;;5036861;28;19920;-85
2022/06/04 09:18:35;;;;;;;;;;;20.00;59.90;;;;;;5073347;28;20001;-86
2022/06/04 09:21:02;;;;;;;;;;;19.90;61.10;;;;;;5070578;28;19916;-86
2022/06/04 09:23:34;;;;;;;;;;;20.10;60.60;;;;;;5052351;28;20379;-86
2022/06/04 09:26:12;;;;;;;;;;;20.10;61.20;;;;;;5049859;28;19916;-86
2022/06/04 09:28:47;;;;;;;;;;;20.20;60.30;;;;;;5052597;28;19963;-86
2022/06/04 09:31:26;;;;;;;;;;;20.50;60.00;;;;;;5067074;28;19917;-85
2022/06/04 09:33:54;;;;;;;;;;;20.40;60.30;;;;;;5052493;28;19916;-86
2022/06/04 09:36:23;;;;;;;;;;;20.50;59.30;;;;;;5053292;28;19936;-87
2022/06/04 09:39:02;;;;;;;;;;;20.50;60.60;;;;;;5053456;28;19912;-85
2022/06/04 09:41:29;;;;;;;;;;;20.50;60.50;;;;;;5053448;28;19960;-86
2022/06/04 09:43:59;;;;;;;;;;;20.50;59.90;;;;;;5051801;28;19932;-86
2022/06/04 09:46:25;;;;;;;;;;;20.50;61.00;;;;;;5046971;28;19913;-87
2022/06/04 09:48:51;;;;;;;;;;;20.50;60.60;;;;;;5059205;28;19950;-87
2022/06/04 09:51:27;;;;;;;;;;;20.30;60.40;;;;;;5066047;28;19921;-86
2022/06/04 09:54:05;;;;;;;;;;;20.50;60.40;;;;;;5053698;28;19935;-85
2022/06/04 09:56:39;;;;;;;;;;;20.50;61.10;;;;;;5064936;28;19954;-85
2022/06/04 09:59:15;;;;;;;;;;;20.50;58.80;;;;;;5064684;28;19920;-85
2022/06/04 10:01:50;;;;;;;;;;;20.60;59.20;;;;;;5048636;28;20523;-85
2022/06/04 10:04:16;;;;;;;;;;;20.50;60.80;;;;;;5037233;28;19917;-86
2022/06/04 10:06:41;;;;;;;;;;;20.50;59.10;;;;;;5052452;28;19913;-86
2022/06/04 10:11:59;;;;;;;;;;;20.50;60.40;;;;;;5054369;28;20302;-87
2022/06/04 10:14:41;;;;;;;;;;;20.70;58.50;;;;;;5065192;28;19927;-86
2022/06/04 10:17:16;;;;;;;;;;;20.60;58.80;;;;;;5063988;28;19909;-87
2022/06/04 10:19:50;;;;;;;;;;;20.70;59.80;;;;;;5056397;28;19928;-86
2022/06/04 10:22:16;;;;;;;;;;;20.80;58.80;;;;;;5047340;28;19944;-86
2022/06/04 10:25:07;;;;;;;;;;;20.60;59.60;;;;;;5031777;28;19932;-87
2022/06/04 10:27:33;;;;;;;;;;;20.70;58.20;;;;;;5033000;28;19913;-85
2022/06/04 10:30:10;;;;;;;;;;;20.80;59.00;;;;;;5050214;28;20272;-86
2022/06/04 10:32:36;;;;;;;;;;;20.90;58.50;;;;;;5050041;28;19912;-88
2022/06/04 10:35:06;;;;;;;;;;;20.80;59.10;;;;;;5050542;28;19912;-86
2022/06/04 10:37:42;;;;;;;;;;;20.80;59.50;;;;;;5051468;28;19967;-86
2022/06/04 10:40:08;;;;;;;;;;;20.80;59.70;;;;;;5042918;28;20011;-86
2022/06/04 10:42:36;;;;;;;;;;;20.80;58.70;;;;;;5034498;28;20007;-87
2022/06/04 10:45:26;;;;;;;;;;;20.70;59.50;;;;;;5051118;28;19920;-87
2022/06/04 10:47:55;;;;;;;;;;;20.70;59.10;;;;;;5050979;28;20002;-86
2022/06/04 10:53:36;;;;;;;;;;;20.70;60.20;;;;;;5056988;23;20271;-86
2022/06/04 10:56:07;;;;;;;;;;;21.00;58.50;;;;;;5030244;28;19967;-86
2022/06/04 10:58:59;;;;;;;;;;;21.00;60.10;;;;;;5047726;28;19990;-84
2022/06/04 11:01:28;;;;;;;;;;;21.00;59.80;;;;;;5032869;28;19960;-86
2022/06/04 11:04:11;;;;;;;;;;;21.10;58.60;;;;;;5037915;28;20015;-87
2022/06/04 11:06:41;;;;;;;;;;;21.30;57.70;;;;;;5051778;28;19959;-87
2022/06/04 11:09:23;;;;;;;;;;;21.30;58.50;;;;;;5051398;28;19916;-87
2022/06/04 11:11:57;;;;;;;;;;;21.10;59.40;;;;;;5054318;28;19909;-86
2022/06/04 11:14:34;;;;;;;;;;;21.20;59.60;;;;;;5064321;28;19912;-89
2022/06/04 11:17:16;;;;;;;;;;;21.50;57.60;;;;;;5052562;28;19943;-86
2022/06/04 11:19:58;;;;;;;;;;;21.60;60.40;;;;;;5044808;28;19984;-86
2022/06/04 11:22:24;;;;;;;;;;;21.90;56.50;;;;;;5053415;28;19908;-87
2022/06/04 11:24:52;;;;;;;;;;;21.60;57.10;;;;;;5067668;28;19912;-86
2022/06/04 11:27:26;;;;;;;;;;;21.60;57.10;;;;;;5068781;28;19991;-86
2022/06/04 11:29:53;;;;;;;;;;;21.90;55.30;;;;;;5063080;28;19917;-87
2022/06/04 11:32:21;;;;;;;;;;;21.70;56.40;;;;;;5054975;28;20281;-87
2022/06/04 11:34:53;;;;;;;;;;;21.80;57.10;;;;;;5053325;28;19909;-87
2022/06/04 11:37:37;;;;;;;;;;;21.60;55.60;;;;;;5053009;28;19909;-86
2022/06/04 11:40:12;;;;;;;;;;;21.60;56.60;;;;;;5063370;28;19913;-88
2022/06/04 11:42:52;;;;;;;;;;;21.60;56.20;;;;;;5069602;28;19909;-88
2022/06/04 11:45:23;;;;;;;;;;;21.50;55.40;;;;;;5055469;28;19928;-86
2022/06/04 11:48:05;;;;;;;;;;;21.50;56.10;;;;;;5050908;28;19960;-86
2022/06/04 11:50:48;;;;;;;;;;;21.50;56.60;;;;;;5050573;28;19912;-89
2022/06/04 11:53:23;;;;;;;;;;;21.60;56.20;;;;;;5047214;28;19931;-85
2022/06/04 11:55:48;;;;;;;;;;;21.70;56.60;;;;;;5046789;28;19924;-87
2022/06/04 11:58:26;;;;;;;;;;;21.90;56.30;;;;;;5034153;28;19909;-87
2022/06/04 12:01:00;;;;;;;;;;;21.80;54.90;;;;;;5049668;28;19915;-86
2022/06/04 12:03:37;;;;;;;;;;;21.90;55.00;;;;;;5050554;28;20265;-88
2022/06/04 12:06:10;;;;;;;;;;;21.70;54.30;;;;;;5050828;28;20077;-88
2022/06/04 12:08:44;;;;;;;;;;;21.70;55.50;;;;;;5042836;28;19916;-87
2022/06/04 12:11:28;;;;;;;;;;;21.70;55.30;;;;;;5030430;28;19975;-87
2022/06/04 12:14:03;;;;;;;;;;;21.70;55.20;;;;;;5031883;28;19916;-88
2022/06/04 12:16:31;;;;;;;;;;;21.80;54.70;;;;;;5047106;28;19932;-89
2022/06/04 12:18:59;;;;;;;;;;;21.80;55.00;;;;;;5030857;28;20059;-88
2022/06/04 12:24:28;;;;;;;;;;;22.00;54.50;;;;;;5033153;28;19924;-88
2022/06/04 12:27:03;;;;;;;;;;;22.10;56.10;;;;;;5047804;28;19980;-90
2022/06/04 12:29:29;;;;;;;;;;;22.20;53.40;;;;;;5030470;28;19968;-87
2022/06/04 12:32:00;;;;;;;;;;;22.20;55.00;;;;;;5036576;28;19916;-87
2022/06/04 12:34:37;;;;;;;;;;;22.20;54.30;;;;;;5053890;28;19983;-89
2022/06/04 12:37:03;;;;;;;;;;;22.20;52.90;;;;;;5056170;28;20012;-87
2022/06/04 12:40:05;;;;;;;;;;;22.10;54.00;;;;;;5057143;28;20436;-88
2022/06/04 12:42:33;;;;;;;;;;;22.10;53.30;;;;;;5036071;28;19913;-90
2022/06/04 12:45:03;;;;;;;;;;;22.10;54.00;;;;;;5049440;28;19917;-88
2022/06/04 12:47:51;;;;;;;;;;;22.20;53.30;;;;;;5062587;28;19959;-90
2022/06/04 12:50:29;;;;;;;;;;;22.50;51.80;;;;;;5056866;28;19920;-88
2022/06/04 12:53:25;;;;;;;;;;;22.70;53.30;;;;;;5053172;28;20336;-89
2022/06/04 12:56:23;;;;;;;;;;;22.60;52.30;;;;;;5052587;28;19933;-90
2022/06/04 12:59:07;;;;;;;;;;;22.80;52.60;;;;;;5023992;28;20326;-87
2022/06/04 13:01:37;;;;;;;;;;;23.20;50.80;;;;;;5033340;28;19909;-87
2022/06/04 13:04:13;;;;;;;;;;;23.20;49.80;;;;;;5035140;28;20030;-87
2022/06/04 13:06:53;;;;;;;;;;;23.30;49.60;;;;;;5018448;28;20267;-88
2022/06/04 13:09:37;;;;;;;;;;;23.10;51.10;;;;;;5042420;28;20383;-86
2022/06/04 13:12:22;;;;;;;;;;;23.10;52.60;;;;;;5044710;28;20383;-87
2022/06/04 13:14:54;;;;;;;;;;;23.50;50.10;;;;;;5051376;28;19915;-86
2022/06/04 13:17:42;;;;;;;;;;;23.60;51.00;;;;;;5050246;28;19915;-88
2022/06/04 13:20:18;;;;;;;;;;;23.70;49.60;;;;;;5053461;28;19916;-89
2022/06/04 13:23:07;;;;;;;;;;;23.60;51.20;;;;;;5052859;28;19912;-86
2022/06/04 13:25:50;;;;;;;;;;;23.60;49.20;;;;;;5041972;28;19917;-87
2022/06/04 13:28:38;;;;;;;;;;;23.50;50.60;;;;;;5053670;28;19909;-85
2022/06/04 13:31:33;;;;;;;;;;;23.40;51.60;;;;;;5047821;28;19917;-86
2022/06/04 13:34:10;;;;;;;;;;;23.50;50.60;;;;;;5065053;23;19929;-87
2022/06/04 13:36:57;;;;;;;;;;;;;;;;;;;;;
2022/06/04 13:39:23;;;;;;;;;;;23.60;51.90;;;;;;5032129;28;19909;-83
2022/06/04 13:42:02;;;;;;;;;;;24.00;48.60;;;;;;5033935;28;20008;-85
2022/06/04 13:44:28;;;;;;;;;;;23.50;50.60;;;;;;5024075;28;19928;-84
2022/06/04 13:47:12;;;;;;;;;;;23.30;50.10;;;;;;5032701;28;19910;-87
2022/06/04 13:49:38;;;;;;;;;;;23.50;49.40;;;;;;5051317;28;19931;-86
2022/06/04 13:52:14;;;;;;;;;;;23.30;50.80;;;;;;5050780;28;20333;-85
2022/06/04 13:54:48;;;;;;;;;;;23.60;49.10;;;;;;5051987;28;19913;-87
2022/06/04 13:57:18;;;;;;;;;;;23.60;47.90;;;;;;5050318;28;19920;-86
2022/06/04 13:59:45;;;;;;;;;;;23.60;48.70;;;;;;5049015;28;19913;-85
2022/06/04 14:02:14;;;;;;;;;;;23.50;49.40;;;;;;5064204;28;19929;-86
2022/06/04 14:07:35;;;;;;;;;;;23.50;49.30;;;;;;5055322;28;19916;-86
2022/06/04 14:10:07;;;;;;;;;;;23.30;49.10;;;;;;5073327;28;19913;-87
2022/06/04 14:12:54;;;;;;;;;;;23.20;49.70;;;;;;5048862;28;19909;-85
2022/06/04 14:15:41;;;;;;;;;;;23.50;50.20;;;;;;5030906;28;19913;-88
2022/06/04 14:18:07;;;;;;;;;;;23.50;48.70;;;;;;5031113;28;19913;-85
2022/06/04 14:20:45;;;;;;;;;;;23.30;49.20;;;;;;5040723;28;20387;-86
2022/06/04 14:23:38;;;;;;;;;;;23.30;49.60;;;;;;5062738;28;19921;-86
2022/06/04 14:26:29;;;;;;;;;;;23.30;49.90;;;;;;5050084;28;19924;-87
2022/06/04 14:29:19;;;;;;;;;;;23.30;49.80;;;;;;5040134;28;19924;-84
2022/06/04 14:31:44;;;;;;;;;;;23.50;49.80;;;;;;5050004;28;19909;-86
2022/06/04 14:34:10;;;;;;;;;;;23.40;50.70;;;;;;5050118;28;19978;-85
2022/06/04 14:36:45;;;;;;;;;;;23.60;48.50;;;;;;5049746;28;19909;-85
2022/06/04 14:39:10;;;;;;;;;;;23.60;49.00;;;;;;5038570;28;19925;-85
2022/06/04 14:41:47;;;;;;;;;;;23.50;48.40;;;;;;5048721;28;19913;-85
2022/06/04 14:44:52;;;;;;;;;;;23.50;49.90;;;;;;5051056;28;19917;-85
2022/06/04 14:47:36;;;;;;;;;;;23.60;49.30;;;;;;5029028;28;20343;-84
2022/06/04 14:50:17;;;;;;;;;;;23.60;50.00;;;;;;5049068;28;20027;-86
2022/06/04 14:52:47;;;;;;;;;;;23.80;47.40;;;;;;5047949;28;19915;-85
2022/06/04 14:55:16;;;;;;;;;;;23.70;48.00;;;;;;5030017;28;20051;-85
2022/06/04 14:58:11;;;;;;;;;;;23.70;47.50;;;;;;5028990;28;19916;-84
2022/06/04 15:01:19;;;;;;;;;;;23.70;48.00;;;;;;5029761;28;19909;-85
2022/06/04 15:04:08;;;;;;;;;;;23.70;50.10;;;;;;5001009;28;20395;-85
2022/06/04 15:10:06;;;;;;;;;;;23.80;47.80;;;;;;5048898;28;20004;-86
2022/06/04 15:13:04;;;;;;;;;;;23.80;48.30;;;;;;5057390;28;19974;-85
2022/06/04 15:15:59;;;;;;;;;;;;;;;;;;;;;
2022/06/04 15:18:43;;;;;;;;;;;24.00;47.50;;;;;;5055896;28;19913;-86